Time;durP1;ratioP1;P1;durP2;ratioP2;P2;SDS_P1;SDS_P2;PMS_P1;PMS_P2;Temp;Humidity;BMP_temperature;BMP_pressure;BME280_temperature;BME280_humidity;BME280_pressure;Samples;Min_cycle;Max_cycle;Signal;HPM_P1;HPM_P2
2023/08/08 00:00:47;;;;;;;3.22;0.90;;;;;;;-142.57;30.90;115900.28;5055434;28;20026;-86
2023/08/08 00:03:13;;;;;;;2.03;0.70;;;;;;;-142.57;30.98;115900.28;5055466;28;20017;-87
2023/08/08 00:05:38;;;;;;;0.98;0.52;;;;;;;-142.57;30.88;115900.28;5037279;28;20120;-88
2023/08/08 00:08:05;;;;;;;5.00;0.70;;;;;;;-142.57;30.82;115900.28;5053635;28;20029;-89
2023/08/08 00:10:31;;;;;;;6.45;1.00;;;;;;;-142.57;30.86;115900.28;5053813;28;20394;-85
2023/08/08 00:12:56;;;;;;;1.65;0.60;;;;;;;-142.57;31.20;115900.28;5041814;28;20025;-86
2023/08/08 00:15:22;;;;;;;2.30;0.90;;;;;;;-142.57;31.42;115900.28;5038759;28;20026;-88
2023/08/08 00:17:48;;;;;;;0.63;0.60;;;;;;;-142.57;31.63;115900.28;5039890;28;20490;-86
2023/08/08 00:20:13;;;;;;;0.70;0.50;;;;;;;-142.57;31.46;115900.28;5040617;28;20029;-86
2023/08/08 00:22:39;;;;;;;1.92;0.70;;;;;;;-142.57;31.27;115900.28;5039850;28;20044;-87
2023/08/08 00:25:08;;;;;;;1.80;0.68;;;;;;;-142.57;31.32;115900.28;5041880;28;20474;-88
2023/08/08 00:27:34;;;;;;;0.93;0.60;;;;;;;-142.57;31.12;115900.28;5042915;28;20034;-86
2023/08/08 00:30:00;;;;;;;0.73;0.50;;;;;;;-142.57;31.00;115900.28;5023303;28;20184;-86
2023/08/08 00:32:26;;;;;;;2.15;0.60;;;;;;;-142.57;31.31;115900.28;5041921;28;20435;-89
2023/08/08 00:34:52;;;;;;;0.98;0.60;;;;;;;-142.57;31.38;115900.28;5041828;28;20041;-86
2023/08/08 00:37:17;;;;;;;4.55;0.70;;;;;;;-142.57;31.50;115900.28;5040649;28;20490;-89
2023/08/08 00:39:46;;;;;;;1.40;0.70;;;;;;;-142.57;31.56;115900.28;5040074;28;20053;-87
2023/08/08 00:42:13;;;;;;;1.48;0.65;;;;;;;-142.57;31.40;115900.28;5038462;28;20087;-89
2023/08/08 00:44:40;;;;;;;0.82;0.50;;;;;;;-142.57;31.84;115900.28;5038947;28;20025;-88
2023/08/08 00:47:10;;;;;;;2.75;0.60;;;;;;;-142.57;32.12;115900.28;5040869;28;20040;-88
2023/08/08 00:49:36;;;;;;;1.20;0.70;;;;;;;-142.57;32.24;115900.28;5039845;28;20048;-86
2023/08/08 00:52:02;;;;;;;0.98;0.40;;;;;;;-142.57;32.36;115900.28;5038778;28;20034;-88
2023/08/08 00:54:28;;;;;;;1.55;0.73;;;;;;;-142.57;32.45;115900.28;5038741;28;20033;-88
2023/08/08 00:56:54;;;;;;;0.88;0.57;;;;;;;-142.57;32.60;115900.28;5041570;28;20026;-87
2023/08/08 00:59:20;;;;;;;0.43;0.40;;;;;;;-142.57;32.56;115900.28;5046143;28;20041;-88
2023/08/08 01:01:46;;;;;;;1.90;0.73;;;;;;;-142.57;33.01;115900.28;5047503;28;20041;-88
2023/08/08 01:04:12;;;;;;;0.75;0.50;;;;;;;-142.57;32.79;115900.28;5048282;28;20037;-88
2023/08/08 01:06:48;;;;;;;0.80;0.70;;;;;;;-142.57;32.51;115900.28;5052454;28;20025;-87
2023/08/08 01:09:20;;;;;;;1.40;0.68;;;;;;;-142.57;32.79;115900.28;5042930;28;20386;-87
2023/08/08 01:11:48;;;;;;;2.45;0.88;;;;;;;-142.57;32.80;115900.28;5042030;28;20120;-86
2023/08/08 01:14:15;;;;;;;3.63;0.50;;;;;;;-142.57;33.02;115900.28;5045173;28;20029;-87
2023/08/08 01:16:44;;;;;;;4.55;0.52;;;;;;;-142.57;32.81;115900.28;5043080;28;20033;-89
2023/08/08 01:19:14;;;;;;;1.92;0.52;;;;;;;-142.57;32.79;115900.28;5021326;28;20098;-88
2023/08/08 01:21:45;;;;;;;1.08;0.60;;;;;;;-142.57;32.95;115900.28;5039132;28;20124;-87
2023/08/08 01:24:23;;;;;;;3.42;0.47;;;;;;;-142.57;32.76;115900.28;5038933;28;20094;-86
2023/08/08 01:26:49;;;;;;;1.27;0.70;;;;;;;-142.57;32.82;115900.28;5039841;28;20069;-86
2023/08/08 01:29:18;;;;;;;3.58;0.95;;;;;;;-142.57;32.63;115900.28;5042177;28;20026;-87
2023/08/08 01:31:43;;;;;;;5.05;0.60;;;;;;;-142.57;32.56;115900.28;5040517;28;20037;-89
2023/08/08 01:34:10;;;;;;;1.58;0.93;;;;;;;-142.57;32.37;115900.28;5040639;28;20119;-87
2023/08/08 01:36:55;;;;;;;1.27;0.82;;;;;;;-142.57;32.34;115900.28;5041584;28;20030;-87
2023/08/08 01:39:26;;;;;;;4.13;0.80;;;;;;;-142.57;32.16;115900.28;5040604;28;20121;-88
2023/08/08 01:41:54;;;;;;;1.65;0.80;;;;;;;-142.57;32.56;115900.28;5041057;28;20029;-87
2023/08/08 01:44:23;;;;;;;1.00;0.60;;;;;;;-142.57;32.69;115900.28;5040648;28;20037;-87
2023/08/08 01:46:49;;;;;;;2.45;0.68;;;;;;;-142.57;32.87;115900.28;5041809;28;20029;-86
2023/08/08 01:49:14;;;;;;;0.90;0.70;;;;;;;-142.57;32.44;115900.28;5042484;28;20026;-85
2023/08/08 01:51:41;;;;;;;3.63;0.80;;;;;;;-142.57;33.13;115900.28;5041632;28;20029;-86
2023/08/08 01:54:07;;;;;;;2.03;1.05;;;;;;;-142.57;33.61;115900.28;5044720;28;20060;-86
2023/08/08 01:56:33;;;;;;;0.95;0.60;;;;;;;-142.57;33.80;115900.28;5044653;28;20080;-85
2023/08/08 01:59:00;;;;;;;3.63;0.68;;;;;;;-142.57;34.24;115900.28;5042959;28;20044;-86
2023/08/08 02:01:25;;;;;;;1.65;0.73;;;;;;;-142.57;34.41;115900.28;5024002;28;20042;-87
2023/08/08 02:03:51;;;;;;;1.95;0.75;;;;;;;-142.57;34.26;115900.28;5040135;28;20041;-87
2023/08/08 02:06:17;;;;;;;1.33;0.77;;;;;;;-142.57;34.72;115900.28;5038827;28;20124;-87
2023/08/08 02:08:42;;;;;;;3.17;0.63;;;;;;;-142.57;34.52;115900.28;5039563;28;20049;-86
2023/08/08 02:11:08;;;;;;;3.70;0.80;;;;;;;-142.57;34.58;115900.28;5022665;28;20034;-86
2023/08/08 02:13:33;;;;;;;1.27;0.70;;;;;;;-142.57;34.36;115900.28;5040636;28;20037;-86
2023/08/08 02:15:59;;;;;;;3.42;0.70;;;;;;;-142.57;34.48;115900.28;5040251;28;20035;-89
2023/08/08 02:18:25;;;;;;;1.33;0.80;;;;;;;-142.57;34.32;115900.28;5039843;28;20069;-87
2023/08/08 02:20:51;;;;;;;5.25;0.77;;;;;;;-142.57;34.69;115900.28;5039961;28;20084;-86
2023/08/08 02:23:26;;;;;;;2.13;0.90;;;;;;;-142.57;34.75;115900.28;5040079;28;20030;-88
2023/08/08 02:25:51;;;;;;;1.65;0.80;;;;;;;-142.57;35.30;115900.28;5040972;28;20087;-87
2023/08/08 02:28:20;;;;;;;1.95;0.65;;;;;;;-142.57;35.25;115900.28;5038049;28;20049;-86
2023/08/08 02:30:46;;;;;;;1.17;0.57;;;;;;;-142.57;35.43;115900.28;5039060;28;20026;-86
2023/08/08 02:33:14;;;;;;;4.13;0.52;;;;;;;-142.57;35.13;115900.28;5040202;28;20033;-88
2023/08/08 02:35:43;;;;;;;4.32;0.60;;;;;;;-142.57;35.69;115900.28;5040166;28;20060;-87
2023/08/08 02:38:09;;;;;;;1.20;0.70;;;;;;;-142.57;35.50;115900.28;5046924;28;20506;-87
2023/08/08 02:40:34;;;;;;;1.58;0.73;;;;;;;-142.57;35.69;115900.28;5044278;28;20095;-87
2023/08/08 02:43:00;;;;;;;0.95;0.57;;;;;;;-142.57;35.68;115900.28;5047610;28;20042;-85
2023/08/08 02:45:26;;;;;;;1.88;0.70;;;;;;;-142.57;35.43;115900.28;5046714;28;20033;-86
2023/08/08 02:47:52;;;;;;;3.13;0.55;;;;;;;-142.57;35.33;115900.28;5045489;28;20017;-87
2023/08/08 02:50:19;;;;;;;2.30;0.82;;;;;;;-142.57;35.71;115900.28;5040339;28;20486;-87
2023/08/08 02:52:47;;;;;;;1.70;0.90;;;;;;;-142.57;35.99;115900.28;5039583;28;20482;-85
2023/08/08 02:55:13;;;;;;;1.55;0.95;;;;;;;-142.57;35.92;115900.28;5040586;28;20508;-89
2023/08/08 02:57:40;;;;;;;1.83;0.95;;;;;;;-142.57;35.50;115900.28;5022699;28;20045;-87
2023/08/08 03:00:08;;;;;;;1.95;0.80;;;;;;;-142.57;35.69;115900.28;5039690;28;20018;-88
2023/08/08 03:02:38;;;;;;;4.20;0.90;;;;;;;-142.57;35.29;115900.28;5023276;28;20050;-87
2023/08/08 03:05:05;;;;;;;4.15;0.80;;;;;;;-142.57;35.98;115900.28;5038454;28;20091;-88
2023/08/08 03:07:31;;;;;;;0.98;0.50;;;;;;;-142.57;36.18;115900.28;5038228;28;20053;-87
2023/08/08 03:09:57;;;;;;;4.32;0.60;;;;;;;-142.57;36.27;115900.28;5039591;28;20072;-84
2023/08/08 03:12:22;;;;;;;1.00;0.80;;;;;;;-142.57;36.48;115900.28;5024248;28;20467;-86
2023/08/08 03:14:50;;;;;;;0.88;0.57;;;;;;;-142.57;36.50;115900.28;5041786;28;20173;-87
2023/08/08 03:17:16;;;;;;;1.50;0.82;;;;;;;-142.57;36.62;115900.28;5023375;28;20452;-87
2023/08/08 03:19:41;;;;;;;1.20;0.68;;;;;;;-142.57;36.06;115900.28;5039771;28;20029;-89
2023/08/08 03:22:10;;;;;;;2.63;0.60;;;;;;;-142.57;36.73;115900.28;5039533;28;20030;-89
2023/08/08 03:24:37;;;;;;;1.23;0.70;;;;;;;-142.57;36.83;115900.28;5039349;28;20497;-89
2023/08/08 03:27:03;;;;;;;0.98;0.65;;;;;;;-142.57;36.71;115900.28;5039857;28;20034;-90
2023/08/08 03:29:28;;;;;;;1.85;0.70;;;;;;;-142.57;36.52;115900.28;5039109;28;20069;-90
2023/08/08 03:31:56;;;;;;;1.10;0.60;;;;;;;-142.57;36.38;115900.28;5039911;28;20037;-90
2023/08/08 03:34:23;;;;;;;1.48;0.60;;;;;;;-142.57;36.22;115900.28;5038820;28;20108;-90
2023/08/08 03:36:49;;;;;;;1.60;0.90;;;;;;;-142.57;35.76;115900.28;5039843;28;20099;-87
2023/08/08 03:39:16;;;;;;;1.10;0.73;;;;;;;-142.57;35.59;115900.28;5038804;28;20049;-88
2023/08/08 03:41:41;;;;;;;1.85;0.75;;;;;;;-142.57;36.24;115900.28;5038826;28;20038;-85
2023/08/08 03:44:07;;;;;;;4.22;0.80;;;;;;;-142.57;37.27;115900.28;5038311;28;20041;-89
2023/08/08 03:46:33;;;;;;;1.92;1.05;;;;;;;-142.57;37.36;115900.28;5038467;28;20033;-87
2023/08/08 03:48:59;;;;;;;1.00;0.80;;;;;;;-142.57;37.59;115900.28;5022255;28;20033;-88
2023/08/08 03:51:26;;;;;;;1.08;0.77;;;;;;;-142.57;37.06;115900.28;5049321;28;20394;-89
2023/08/08 03:53:52;;;;;;;1.42;0.80;;;;;;;-142.57;36.80;115900.28;5058579;28;20032;-83
2023/08/08 03:56:17;;;;;;;3.47;0.73;;;;;;;-142.57;36.75;115900.28;5046969;28;20041;-87
2023/08/08 03:58:43;;;;;;;4.30;0.80;;;;;;;-142.57;37.36;115900.28;5037393;28;20043;-88
2023/08/08 04:01:11;;;;;;;1.85;1.00;;;;;;;-142.57;37.72;115900.28;5037223;28;20023;-90
2023/08/08 04:03:39;;;;;;;1.08;0.60;;;;;;;-142.57;37.74;115900.28;5036206;28;20562;-85
2023/08/08 04:06:05;;;;;;;1.00;0.80;;;;;;;-142.57;37.88;115900.28;5034889;28;20061;-84
2023/08/08 04:08:32;;;;;;;2.72;0.90;;;;;;;-142.57;37.96;115900.28;5035525;28;20033;-84
2023/08/08 04:10:58;;;;;;;2.35;0.90;;;;;;;-142.57;37.43;115900.28;5036840;28;20033;-88
2023/08/08 04:13:23;;;;;;;2.30;0.80;;;;;;;-142.57;37.38;115900.28;5036598;28;20071;-86
2023/08/08 04:15:51;;;;;;;1.30;0.60;;;;;;;-142.57;37.43;115900.28;5042927;28;20041;-90
2023/08/08 04:18:17;;;;;;;6.68;1.13;;;;;;;-142.57;38.24;115900.28;5039390;28;20033;-89
2023/08/08 04:20:49;;;;;;;3.92;0.77;;;;;;;-142.57;38.47;115900.28;5039169;28;20035;-91
2023/08/08 04:23:15;;;;;;;5.30;0.75;;;;;;;-142.57;38.73;115900.28;5039467;28;20127;-86
2023/08/08 04:25:40;;;;;;;3.33;1.02;;;;;;;-142.57;38.60;115900.28;5036307;28;20390;-88
2023/08/08 04:28:06;;;;;;;2.35;0.95;;;;;;;-142.57;39.43;115900.28;5039643;28;20103;-88
2023/08/08 04:30:31;;;;;;;1.30;0.70;;;;;;;-142.57;40.07;115900.28;5049337;28;20029;-84
2023/08/08 04:33:08;;;;;;;4.00;0.88;;;;;;;-142.57;40.05;115900.28;5059711;28;20073;-92
2023/08/08 04:35:37;;;;;;;2.15;1.10;;;;;;;-142.57;40.07;115900.28;5056908;28;20033;-90
2023/08/08 04:38:03;;;;;;;3.58;0.85;;;;;;;-142.57;40.24;115900.28;5058104;28;20098;-90
2023/08/08 04:40:45;;;;;;;1.33;0.80;;;;;;;-142.57;40.24;115900.28;5059721;28;20137;-89
2023/08/08 04:43:11;;;;;;;1.23;0.60;;;;;;;-142.57;39.88;115900.28;5051722;23;20052;-89
2023/08/08 04:45:44;;;;;;;2.88;1.25;;;;;;;-142.57;39.75;115900.28;5046657;28;20405;-88
2023/08/08 04:50:49;;;;;;;3.50;0.80;;;;;;;-142.57;39.65;115900.28;5021259;23;20061;-91
2023/08/08 04:53:14;;;;;;;1.77;0.80;;;;;;;-142.57;39.46;115900.28;5058125;28;20094;-91
2023/08/08 04:55:40;;;;;;;1.65;0.95;;;;;;;-142.57;39.24;115900.28;5057301;28;20029;-87
2023/08/08 04:58:09;;;;;;;1.50;1.00;;;;;;;-142.57;38.91;115900.28;5040902;28;20028;-91
2023/08/08 05:00:37;;;;;;;1.40;0.80;;;;;;;-142.57;38.99;115900.28;5061856;28;20028;-91
2023/08/08 05:03:03;;;;;;;1.20;0.75;;;;;;;-142.57;39.49;115900.28;5059399;28;20041;-91
2023/08/08 05:05:32;;;;;;;2.17;0.90;;;;;;;-142.57;39.94;115900.28;5041734;28;20048;-88
2023/08/08 05:07:58;;;;;;;2.47;0.63;;;;;;;-142.57;40.57;115900.28;5058186;28;20025;-92
2023/08/08 05:10:25;;;;;;;2.30;1.00;;;;;;;-142.57;41.15;115900.28;5059290;28;20025;-89
2023/08/08 05:13:12;;;;;;;3.35;1.02;;;;;;;-142.57;40.41;115900.28;5041127;28;20033;-89
2023/08/08 05:15:37;;;;;;;3.35;0.80;;;;;;;-142.57;39.64;115900.28;5040836;28;20021;-88
2023/08/08 05:18:03;;;;;;;7.75;0.90;;;;;;;-142.57;39.56;115900.28;5055950;28;20035;-88
2023/08/08 05:20:29;;;;;;;8.93;1.15;;;;;;;-142.57;39.96;115900.28;5060298;28;20106;-92
2023/08/08 05:22:54;;;;;;;2.42;0.88;;;;;;;-142.57;40.37;115900.28;5058143;28;20099;-88
2023/08/08 05:25:20;;;;;;;2.75;0.80;;;;;;;-142.57;40.41;115900.28;5058457;28;20029;-87
2023/08/08 05:27:46;;;;;;;2.22;0.90;;;;;;;-142.57;40.22;115900.28;5058860;28;20083;-90
2023/08/08 05:30:12;;;;;;;1.88;0.95;;;;;;;-142.57;40.37;115900.28;5058892;28;20438;-89
2023/08/08 05:32:38;;;;;;;2.95;1.15;;;;;;;-142.57;40.70;115900.28;5062563;28;20072;-87
2023/08/08 05:35:04;;;;;;;1.95;0.85;;;;;;;-142.57;40.26;115900.28;5067103;28;20112;-86
2023/08/08 05:37:30;;;;;;;1.17;0.70;;;;;;;-142.57;40.70;115900.28;5064298;28;20087;-82
2023/08/08 05:39:55;;;;;;;5.50;1.10;;;;;;;-142.57;40.61;115900.28;5062266;28;20402;-88
2023/08/08 05:42:21;;;;;;;1.92;1.05;;;;;;;-142.57;41.15;115900.28;5063954;28;20037;-83
2023/08/08 05:44:50;;;;;;;5.97;1.20;;;;;;;-142.57;41.88;115900.28;5067935;28;20097;-91
2023/08/08 05:47:16;;;;;;;2.42;1.15;;;;;;;-142.57;42.09;115900.28;5060279;28;20060;-83
2023/08/08 05:49:42;;;;;;;5.32;1.20;;;;;;;-142.57;42.41;115900.28;5056003;28;20041;-82
2023/08/08 05:52:08;;;;;;;1.67;0.80;;;;;;;-142.57;42.84;115900.28;5053391;28;20035;-80
2023/08/08 05:54:34;;;;;;;4.05;0.80;;;;;;;-142.57;43.38;115900.28;5053443;28;20033;-82
2023/08/08 05:57:00;;;;;;;4.53;1.13;;;;;;;-142.57;43.90;115900.28;5054379;28;20025;-84
2023/08/08 05:59:25;;;;;;;4.28;1.05;;;;;;;-142.57;44.15;115900.28;5054436;28;20463;-82
2023/08/08 06:01:51;;;;;;;6.57;1.40;;;;;;;-142.57;44.40;115900.28;5054151;28;20027;-82
2023/08/08 06:04:17;;;;;;;5.68;1.70;;;;;;;-142.57;44.43;115900.28;5033833;28;20116;-84
2023/08/08 06:06:42;;;;;;;11.63;1.52;;;;;;;-142.57;44.54;115900.28;5039217;28;20038;-85
2023/08/08 06:09:11;;;;;;;8.57;1.63;;;;;;;-142.57;44.73;115900.28;5036044;28;20429;-85
2023/08/08 06:11:36;;;;;;;3.70;1.73;;;;;;;-142.57;44.77;115900.28;5034350;28;20053;-87
2023/08/08 06:14:02;;;;;;;6.78;1.92;;;;;;;-142.57;44.24;115900.28;5035459;28;20053;-89
2023/08/08 06:16:28;;;;;;;4.38;1.70;;;;;;;-142.57;44.45;115900.28;5037248;28;20042;-85
2023/08/08 06:18:53;;;;;;;5.63;1.95;;;;;;;-142.57;44.11;115900.28;5037435;28;20038;-84
2023/08/08 06:21:19;;;;;;;13.75;2.10;;;;;;;-142.57;43.05;115900.28;5037124;28;20033;-89
2023/08/08 06:23:44;;;;;;;7.10;1.90;;;;;;;-142.57;42.54;115900.28;5036752;28;20129;-87
2023/08/08 06:26:10;;;;;;;7.15;1.77;;;;;;;-142.57;41.54;115900.28;5037320;28;20398;-84
2023/08/08 06:28:35;;;;;;;5.35;1.88;;;;;;;-142.57;41.03;115900.28;5036552;28;20057;-87
2023/08/08 06:31:02;;;;;;;20.83;1.88;;;;;;;-142.57;40.80;115900.28;5036858;28;20038;-90
2023/08/08 06:33:28;;;;;;;14.00;2.28;;;;;;;-142.57;40.12;115900.28;5037716;28;20033;-83
2023/08/08 06:35:55;;;;;;;8.35;2.58;;;;;;;-142.57;39.02;115900.28;5035729;28;20053;-85
2023/08/08 06:38:20;;;;;;;5.60;2.10;;;;;;;-142.57;38.51;115900.28;5036492;28;20064;-84
2023/08/08 06:40:49;;;;;;;6.35;2.75;;;;;;;-142.57;38.26;115900.28;5035413;28;20097;-85
2023/08/08 06:43:15;;;;;;;3.80;2.15;;;;;;;-142.57;39.41;115900.28;5037662;28;20028;-90
2023/08/08 06:45:41;;;;;;;15.18;2.80;;;;;;;-142.57;40.88;115900.28;5046833;28;20037;-86
2023/08/08 06:48:06;;;;;;;8.05;3.22;;;;;;;-142.57;41.64;115900.28;5035736;28;20116;-87
2023/08/08 06:50:38;;;;;;;7.07;3.00;;;;;;;-142.57;40.00;115900.28;5039153;28;20053;-88
2023/08/08 06:53:05;;;;;;;7.93;2.60;;;;;;;-142.57;37.47;115900.28;5039049;28;20426;-85
2023/08/08 06:55:30;;;;;;;5.05;3.03;;;;;;;-142.57;36.83;115900.28;5037094;28;20393;-83
2023/08/08 06:57:56;;;;;;;5.72;3.17;;;;;;;-142.57;36.31;115900.28;5035880;28;20037;-85
2023/08/08 07:00:21;;;;;;;5.68;3.78;;;;;;;-142.57;35.25;115900.28;5035875;28;20087;-84
2023/08/08 07:02:47;;;;;;;6.55;3.28;;;;;;;-142.57;35.09;115900.28;5035795;28;20033;-85
2023/08/08 07:05:12;;;;;;;5.20;3.67;;;;;;;-142.57;34.53;115900.28;5034565;28;20041;-84
2023/08/08 07:07:38;;;;;;;6.72;3.60;;;;;;;-142.57;35.73;115900.28;5036114;28;20418;-85
2023/08/08 07:10:05;;;;;;;10.82;3.85;;;;;;;-142.57;36.12;115900.28;5036133;28;20033;-86
2023/08/08 07:12:30;;;;;;;7.05;3.67;;;;;;;-142.57;37.61;115900.28;5034470;28;20045;-83
2023/08/08 07:14:56;;;;;;;6.78;4.15;;;;;;;-142.57;37.52;115900.28;5035948;28;20033;-85
2023/08/08 07:17:21;;;;;;;12.32;3.10;;;;;;;-142.57;37.14;115900.28;5035858;28;20033;-84
2023/08/08 07:19:50;;;;;;;7.57;3.78;;;;;;;-142.57;37.65;115900.28;5034977;28;20041;-86
2023/08/08 07:22:16;;;;;;;5.13;3.67;;;;;;;-142.57;37.25;115900.28;5035742;28;20026;-84
2023/08/08 07:24:41;;;;;;;8.52;3.72;;;;;;;-142.57;37.36;115900.28;5034242;28;20040;-84
2023/08/08 07:27:07;;;;;;;6.53;3.55;;;;;;;-142.57;37.35;115900.28;5034971;28;20025;-84
2023/08/08 07:29:35;;;;;;;8.35;4.32;;;;;;;-142.57;36.76;115900.28;5034358;28;20029;-84
2023/08/08 07:32:04;;;;;;;10.10;3.67;;;;;;;-142.57;36.85;115900.28;5036116;28;20475;-85
2023/08/08 07:34:30;;;;;;;7.97;4.15;;;;;;;-142.57;36.18;115900.28;5034508;28;20048;-85
2023/08/08 07:36:56;;;;;;;9.00;3.90;;;;;;;-142.57;35.26;115900.28;5035579;28;20034;-86
2023/08/08 07:39:21;;;;;;;5.55;3.22;;;;;;;-142.57;35.05;115900.28;5033953;28;20033;-86
2023/08/08 07:41:47;;;;;;;7.97;3.60;;;;;;;-142.57;35.15;115900.28;5035655;28;20033;-85
2023/08/08 07:44:12;;;;;;;8.70;4.18;;;;;;;-142.57;35.30;115900.28;5033290;28;20034;-83
2023/08/08 07:46:38;;;;;;;4.40;2.90;;;;;;;-142.57;36.38;115900.28;5040152;28;20044;-84
2023/08/08 07:49:04;;;;;;;8.00;3.03;;;;;;;-142.57;35.87;115900.28;5045147;28;20052;-87
2023/08/08 07:51:30;;;;;;;9.48;2.70;;;;;;;-142.57;36.20;115900.28;5046970;28;20121;-83
2023/08/08 07:53:56;;;;;;;6.05;2.75;;;;;;;-142.57;35.99;115900.28;5048061;28;20108;-84
2023/08/08 07:56:22;;;;;;;5.88;3.20;;;;;;;-142.57;37.27;115900.28;5052689;28;20086;-84
2023/08/08 07:58:47;;;;;;;5.50;2.70;;;;;;;-142.57;38.36;115900.28;5053554;28;20445;-83
2023/08/08 08:01:13;;;;;;;9.38;2.80;;;;;;;-142.57;39.10;115900.28;5045066;28;20444;-83
2023/08/08 08:03:39;;;;;;;6.47;2.45;;;;;;;-142.57;39.29;115900.28;5052921;28;20047;-85
2023/08/08 08:06:05;;;;;;;7.90;2.50;;;;;;;-142.57;38.19;115900.28;5051001;28;20033;-84
2023/08/08 08:08:31;;;;;;;6.72;2.80;;;;;;;-142.57;37.47;115900.28;5039856;28;20041;-83
2023/08/08 08:10:57;;;;;;;7.22;3.10;;;;;;;-142.57;37.30;115900.28;5053485;28;20036;-84
2023/08/08 08:13:22;;;;;;;6.55;2.88;;;;;;;-142.57;37.21;115900.28;5053010;28;20029;-84
2023/08/08 08:15:48;;;;;;;4.55;2.40;;;;;;;-142.57;36.98;115900.28;5050578;28;20425;-86
2023/08/08 08:18:16;;;;;;;13.88;2.90;;;;;;;-142.57;37.06;115900.28;5034159;28;20029;-85
2023/08/08 08:20:43;;;;;;;6.22;2.28;;;;;;;-142.57;37.08;115900.28;5041736;28;20038;-85
2023/08/08 08:23:09;;;;;;;3.88;2.40;;;;;;;-142.57;35.34;115900.28;5035464;28;20128;-84
2023/08/08 08:25:35;;;;;;;7.43;2.65;;;;;;;-142.57;35.47;115900.28;5054728;28;20174;-84
2023/08/08 08:28:01;;;;;;;6.30;2.47;;;;;;;-142.57;35.94;115900.28;5054264;28;20032;-84
2023/08/08 08:30:27;;;;;;;3.88;2.20;;;;;;;-142.57;35.44;115900.28;5053107;28;20422;-84
2023/08/08 08:32:52;;;;;;;5.68;2.30;;;;;;;-142.57;34.42;115900.28;5054362;28;20114;-87
2023/08/08 08:35:19;;;;;;;6.55;2.58;;;;;;;-142.57;34.13;115900.28;5055236;28;20116;-82
2023/08/08 08:37:44;;;;;;;5.38;2.50;;;;;;;-142.57;33.37;115900.28;5054706;28;20025;-88
2023/08/08 08:40:10;;;;;;;9.90;2.55;;;;;;;-142.57;34.38;115900.28;5054280;28;20040;-82
2023/08/08 08:42:39;;;;;;;7.57;2.83;;;;;;;-142.57;33.98;115900.28;5055138;28;20040;-90
2023/08/08 08:45:05;;;;;;;7.40;2.30;;;;;;;-142.57;34.54;115900.28;5055518;28;20091;-87
2023/08/08 08:47:31;;;;;;;7.05;2.50;;;;;;;-142.57;34.88;115900.28;5054440;28;20037;-85
2023/08/08 08:49:57;;;;;;;4.45;2.63;;;;;;;-142.57;34.46;115900.28;5054955;28;20128;-81
2023/08/08 08:52:23;;;;;;;5.50;2.20;;;;;;;-142.57;34.41;115900.28;5054658;28;20033;-85
2023/08/08 08:54:53;;;;;;;3.83;2.45;;;;;;;-142.57;34.69;115900.28;5054973;28;20512;-87
2023/08/08 08:57:23;;;;;;;8.80;2.17;;;;;;;-142.57;33.50;115900.28;5055586;28;20043;-87
2023/08/08 08:59:49;;;;;;;6.63;2.70;;;;;;;-142.57;33.48;115900.28;5054678;28;20040;-87
2023/08/08 09:02:15;;;;;;;11.15;3.00;;;;;;;-142.57;35.26;115900.28;5036883;28;20025;-85
2023/08/08 09:04:41;;;;;;;6.15;2.72;;;;;;;-142.57;35.90;115900.28;5054235;28;20383;-86
2023/08/08 09:07:08;;;;;;;7.72;2.38;;;;;;;-142.57;34.90;115900.28;5054093;28;20171;-87
2023/08/08 09:09:37;;;;;;;10.60;2.83;;;;;;;-142.57;34.82;115900.28;5054423;28;20040;-88
2023/08/08 09:12:07;;;;;;;12.27;3.00;;;;;;;-142.57;35.04;115900.28;5053283;28;20458;-91
2023/08/08 09:14:32;;;;;;;7.25;3.10;;;;;;;-142.57;34.34;115900.28;5056182;28;20033;-89
2023/08/08 09:16:58;;;;;;;6.05;2.60;;;;;;;-142.57;34.59;115900.28;5056896;28;20036;-90
2023/08/08 09:19:30;;;;;;;6.55;2.70;;;;;;;-142.57;34.00;115900.28;5056030;28;20506;-91
2023/08/08 09:21:55;;;;;;;4.10;2.83;;;;;;;-142.57;34.83;115900.28;5056908;28;20025;-92
2023/08/08 09:24:21;;;;;;;7.22;3.05;;;;;;;-142.57;34.24;115900.28;5056652;28;20033;-88
2023/08/08 09:26:48;;;;;;;6.18;2.63;;;;;;;-142.57;34.04;115900.28;5053099;28;20083;-90
2023/08/08 09:29:17;;;;;;;8.80;3.20;;;;;;;-142.57;33.72;115900.28;5057879;28;20039;-92
2023/08/08 09:31:47;;;;;;;8.10;2.95;;;;;;;-142.57;33.55;115900.28;5059729;28;20494;-91
2023/08/08 09:34:12;;;;;;;7.13;3.00;;;;;;;-142.57;33.88;115900.28;5037946;28;20171;-90
2023/08/08 09:36:38;;;;;;;10.05;3.00;;;;;;;-142.57;32.77;115900.28;5055782;28;20041;-91
2023/08/08 09:39:04;;;;;;;5.78;3.53;;;;;;;-142.57;34.01;115900.28;5057244;28;20566;-87
2023/08/08 09:41:31;;;;;;;8.52;3.60;;;;;;;-142.57;35.00;115900.28;5056707;28;20128;-92
2023/08/08 09:43:59;;;;;;;8.35;3.00;;;;;;;-142.57;34.35;115900.28;5053011;28;20044;-88
2023/08/08 09:46:25;;;;;;;7.75;3.00;;;;;;;-142.57;34.09;115900.28;5053265;28;20111;-88
2023/08/08 09:48:51;;;;;;;5.28;3.05;;;;;;;-142.57;34.00;115900.28;5053147;28;20039;-89
2023/08/08 09:51:17;;;;;;;8.75;3.15;;;;;;;-142.57;33.54;115900.28;5058389;28;20029;-89
2023/08/08 09:53:44;;;;;;;5.88;3.38;;;;;;;-142.57;32.18;115900.28;5057101;28;20045;-86
2023/08/08 09:56:09;;;;;;;9.43;3.60;;;;;;;-142.57;32.05;115900.28;5057342;28;20082;-86
2023/08/08 09:58:35;;;;;;;18.27;2.97;;;;;;;-142.57;32.06;115900.28;5056829;28;20048;-86
2023/08/08 10:01:04;;;;;;;11.35;2.70;;;;;;;-142.57;32.17;115900.28;5050198;28;20059;-86
2023/08/08 10:03:31;;;;;;;8.00;2.72;;;;;;;-142.57;31.62;115900.28;5045804;28;20037;-87
2023/08/08 10:05:57;;;;;;;7.68;2.58;;;;;;;-142.57;31.06;115900.28;5051546;28;20040;-87
2023/08/08 10:08:23;;;;;;;5.68;2.55;;;;;;;-142.57;31.48;115900.28;5050289;28;20029;-85
2023/08/08 10:10:52;;;;;;;5.70;2.85;;;;;;;-142.57;31.38;115900.28;5047393;28;20112;-87
2023/08/08 10:13:25;;;;;;;12.02;3.80;;;;;;;-142.57;30.16;115900.28;5048690;28;20033;-86
2023/08/08 10:15:51;;;;;;;4.38;3.00;;;;;;;-142.57;30.64;115900.28;5049873;28;20029;-84
2023/08/08 10:18:17;;;;;;;8.60;3.15;;;;;;;-142.57;31.46;115900.28;5046407;28;20036;-87
2023/08/08 10:20:47;;;;;;;4.63;2.65;;;;;;;-142.57;31.75;115900.28;5052817;28;20036;-87
2023/08/08 10:23:15;;;;;;;5.70;2.78;;;;;;;-142.57;32.02;115900.28;5050338;28;20037;-85
2023/08/08 10:25:50;;;;;;;6.53;2.95;;;;;;;-142.57;31.31;115900.28;5050441;28;20124;-87
2023/08/08 10:28:19;;;;;;;5.93;3.35;;;;;;;-142.57;30.57;115900.28;5048910;28;20038;-88
2023/08/08 10:30:52;;;;;;;6.32;2.78;;;;;;;-142.57;30.04;115900.28;5047100;28;20492;-84
2023/08/08 10:33:19;;;;;;;10.10;2.67;;;;;;;-142.57;30.50;115900.28;5048919;28;20045;-88
2023/08/08 10:35:58;;;;;;;8.32;3.08;;;;;;;-142.57;30.02;115900.28;5048271;28;20494;-85
2023/08/08 10:38:25;;;;;;;15.60;3.25;;;;;;;-142.57;30.22;115900.28;5051243;28;20041;-87
2023/08/08 10:41:02;;;;;;;8.43;2.78;;;;;;;-142.57;30.84;115900.28;5024683;28;20025;-86
2023/08/08 10:43:30;;;;;;;5.30;3.42;;;;;;;-142.57;30.03;115900.28;5034583;28;20498;-86
2023/08/08 10:46:01;;;;;;;6.30;2.65;;;;;;;-142.57;29.29;115900.28;5052161;28;20040;-87
2023/08/08 10:48:27;;;;;;;6.38;2.72;;;;;;;-142.57;29.44;115900.28;5050323;28;20049;-89
2023/08/08 10:50:58;;;;;;;4.88;2.55;;;;;;;-142.57;28.78;115900.28;5041233;28;20091;-87
2023/08/08 10:53:28;;;;;;;3.97;2.57;;;;;;;-142.57;30.00;115900.28;5050146;28;20033;-87
2023/08/08 10:56:03;;;;;;;5.05;2.53;;;;;;;-142.57;29.48;115900.28;5044584;28;20318;-89
2023/08/08 10:58:40;;;;;;;7.45;2.95;;;;;;;-142.57;29.73;115900.28;5046217;28;20128;-88
2023/08/08 11:01:07;;;;;;;10.10;2.95;;;;;;;-142.57;29.86;115900.28;5035651;28;20065;-84
2023/08/08 11:03:39;;;;;;;5.38;2.75;;;;;;;-142.57;30.46;115900.28;5051391;28;20421;-87
2023/08/08 11:06:09;;;;;;;5.93;2.00;;;;;;;-142.57;30.63;115900.28;5056700;28;20087;-86
2023/08/08 11:08:37;;;;;;;4.07;2.00;;;;;;;-142.57;30.49;115900.28;5034966;28;20033;-85
2023/08/08 11:11:04;;;;;;;6.47;2.17;;;;;;;-142.57;30.48;115900.28;5036275;28;20053;-86